createdAt,value
2023-01-28T00:00:20.050Z,1.35
2023-01-28T00:03:32.712Z,1.46
2023-01-28T00:06:45.088Z,1.42
2023-01-28T00:09:57.672Z,1.41
2023-01-28T00:13:12.334Z,1.24
2023-01-28T00:16:27.267Z,1.37
2023-01-28T00:19:40.017Z,1.37
2023-01-28T00:22:52.622Z,1.19
2023-01-28T00:26:07.224Z,1.20
2023-01-28T00:29:19.979Z,1.23
2023-01-28T00:32:32.323Z,1.19
2023-01-28T00:35:44.966Z,1.35
2023-01-28T00:38:58.861Z,1.36
2023-01-28T00:42:11.484Z,1.47
2023-01-28T00:45:23.854Z,1.35
2023-01-28T00:48:37.087Z,1.38
2023-01-28T00:51:49.471Z,1.54
2023-01-28T00:55:02.139Z,1.38
2023-01-28T00:58:14.511Z,1.50
2023-01-28T01:01:27.546Z,1.50
2023-01-28T01:04:40.767Z,1.58
2023-01-28T01:07:53.490Z,1.61
2023-01-28T01:11:06.408Z,1.75
2023-01-28T01:14:19.034Z,1.76
2023-01-28T01:17:31.768Z,1.73
2023-01-28T01:20:51.590Z,1.82
2023-01-28T01:24:04.751Z,1.85
2023-01-28T01:27:17.418Z,1.83
2023-01-28T01:30:29.773Z,1.85
2023-01-28T01:33:43.036Z,1.88
2023-01-28T01:36:55.376Z,1.70
2023-01-28T01:40:10.846Z,1.71
2023-01-28T01:43:23.186Z,1.78
2023-01-28T01:46:39.762Z,1.67
2023-01-28T01:49:52.109Z,1.62
2023-01-28T01:53:10.209Z,1.65
2023-01-28T01:56:23.999Z,1.52
2023-01-28T01:59:36.666Z,1.64
2023-01-28T02:02:49.562Z,1.46
2023-01-28T02:06:02.768Z,1.48
2023-01-28T02:09:32.470Z,1.43
2023-01-28T02:12:47.919Z,1.39
2023-01-28T02:16:00.382Z,1.50
2023-01-28T02:19:12.987Z,1.47
2023-01-28T02:22:37.359Z,1.40
2023-01-28T02:26:25.404Z,1.57
2023-01-28T02:29:48.151Z,1.44
2023-01-28T02:33:03.913Z,1.62
2023-01-28T02:36:35.039Z,1.37
2023-01-28T02:39:51.825Z,1.39
2023-01-28T02:43:04.203Z,1.47
2023-01-28T02:46:44.348Z,1.45
2023-01-28T02:49:57.550Z,1.32
2023-01-28T02:53:51.590Z,1.43
2023-01-28T02:57:41.606Z,1.27
2023-01-28T03:00:58.446Z,1.31
2023-01-28T03:04:16.866Z,1.43
2023-01-28T03:07:30.021Z,1.39
2023-01-28T03:10:43.416Z,1.39
2023-01-28T03:14:14.339Z,1.45
2023-01-28T03:17:49.226Z,1.46
2023-01-28T03:21:25.396Z,1.47
2023-01-28T03:25:04.864Z,1.27
2023-01-28T03:28:36.780Z,1.40
2023-01-28T03:32:08.029Z,1.44
2023-01-28T03:35:41.227Z,1.53
2023-01-28T03:38:53.748Z,1.37
2023-01-28T03:42:14.232Z,1.22
2023-01-28T03:45:27.102Z,1.25
2023-01-28T03:48:40.886Z,1.36
2023-01-28T03:51:54.307Z,1.41
2023-01-28T03:55:14.135Z,1.22
2023-01-28T03:58:45.912Z,1.27
2023-01-28T04:01:58.953Z,1.40
2023-01-28T04:05:13.298Z,1.22
2023-01-28T04:08:26.462Z,1.21
2023-01-28T04:11:39.490Z,1.12
2023-01-28T04:14:52.133Z,1.25
2023-01-28T04:18:06.273Z,1.23
2023-01-28T04:21:19.925Z,1.31
2023-01-28T04:24:34.026Z,1.11
2023-01-28T04:27:46.424Z,1.19
2023-01-28T04:31:00.136Z,1.18
2023-01-28T04:34:12.701Z,1.09
2023-01-28T04:37:25.526Z,1.13
2023-01-28T04:40:39.097Z,1.11
2023-01-28T04:43:52.084Z,1.04
2023-01-28T04:47:06.964Z,1.14
2023-01-28T04:50:19.754Z,1.07
2023-01-28T04:53:32.501Z,0.99
2023-01-28T04:56:45.243Z,1.10
2023-01-28T04:59:57.681Z,1.15
2023-01-28T05:03:10.397Z,1.18
2023-01-28T05:06:22.879Z,1.18
2023-01-28T05:09:35.741Z,1.21
2023-01-28T05:12:48.273Z,1.14
2023-01-28T05:16:01.195Z,1.21
2023-01-28T05:19:13.576Z,1.17
2023-01-28T05:22:26.287Z,1.16
2023-01-28T05:25:39.495Z,1.19
2023-01-28T05:28:52.441Z,1.21
2023-01-28T05:32:05.199Z,1.14
2023-01-28T05:35:18.360Z,1.15
2023-01-28T05:38:31.101Z,1.24
2023-01-28T05:41:43.764Z,1.27
2023-01-28T05:44:57.206Z,1.30
2023-01-28T05:48:10.908Z,1.21
2023-01-28T05:51:23.346Z,1.15
2023-01-28T05:54:36.481Z,1.17
2023-01-28T05:57:49.313Z,1.10
2023-01-28T06:01:02.601Z,1.25
2023-01-28T06:04:18.435Z,1.13
2023-01-28T06:07:30.773Z,1.11
2023-01-28T06:10:43.496Z,1.19
2023-01-28T06:13:56.275Z,1.33
2023-01-28T06:17:09.120Z,1.36
2023-01-28T06:20:21.929Z,1.21
2023-01-28T06:23:35.307Z,1.25
2023-01-28T06:26:48.571Z,1.14
2023-01-28T06:30:01.892Z,1.18
2023-01-28T06:33:14.332Z,1.26
2023-01-28T06:36:27.419Z,1.31
2023-01-28T06:39:39.710Z,1.34
2023-01-28T06:42:52.328Z,1.46
2023-01-28T06:46:04.841Z,1.36
2023-01-28T06:49:17.507Z,1.29
2023-01-28T06:52:29.791Z,1.28
2023-01-28T06:55:42.543Z,1.43
2023-01-28T06:58:54.852Z,1.36
2023-01-28T07:02:07.569Z,1.45
2023-01-28T07:05:19.969Z,1.39
2023-01-28T07:08:33.185Z,1.41
2023-01-28T07:11:45.512Z,1.42
2023-01-28T07:14:58.168Z,1.31
2023-01-28T07:18:10.500Z,1.58
2023-01-28T07:21:23.117Z,1.58
2023-01-28T07:24:35.511Z,1.25
2023-01-28T07:27:49.471Z,1.61
2023-01-28T07:31:01.934Z,1.72
2023-01-28T07:34:14.618Z,1.57
2023-01-28T07:37:26.974Z,1.35
2023-01-28T07:40:39.627Z,1.48
2023-01-28T07:43:51.940Z,1.34
2023-01-28T07:47:04.641Z,1.33
2023-01-28T07:50:17.459Z,1.38
2023-01-28T07:53:30.148Z,1.23
2023-01-28T07:56:42.491Z,1.53
2023-01-28T07:59:55.071Z,1.46
2023-01-28T08:03:11.463Z,1.27
2023-01-28T08:06:24.269Z,1.39
2023-01-28T08:09:36.597Z,1.66
2023-01-28T08:12:55.984Z,1.53
2023-01-28T08:16:08.477Z,1.42
2023-01-28T08:19:21.936Z,1.38
2023-01-28T08:22:34.284Z,1.34
2023-01-28T08:25:47.339Z,1.41
2023-01-28T08:28:59.643Z,1.35
2023-01-28T08:32:12.269Z,1.87
2023-01-28T08:35:25.705Z,2.06
2023-01-28T08:38:38.335Z,1.75
2023-01-28T08:41:50.652Z,1.64
2023-01-28T08:45:06.144Z,1.81
2023-01-28T08:48:18.987Z,1.80
2023-01-28T08:51:31.646Z,1.72
2023-01-28T08:54:44.014Z,1.70
2023-01-28T08:57:58.574Z,1.60
2023-01-28T09:01:11.089Z,1.82
2023-01-28T09:04:23.692Z,1.88
2023-01-28T09:07:36.165Z,1.77
2023-01-28T09:10:48.751Z,1.85
2023-01-28T09:14:01.142Z,1.70
2023-01-28T09:17:13.751Z,1.65
2023-01-28T09:20:26.703Z,1.62
2023-01-28T09:23:39.520Z,1.76
2023-01-28T09:26:51.841Z,2.04
2023-01-28T09:30:04.936Z,2.06
2023-01-28T09:33:17.311Z,2.07
2023-01-28T09:36:29.927Z,2.33
2023-01-28T09:39:42.283Z,2.25
2023-01-28T09:43:25.819Z,2.26
2023-01-28T09:46:38.617Z,2.33
2023-01-28T09:49:51.736Z,2.70
2023-01-28T09:53:30.417Z,2.48
2023-01-28T09:56:46.176Z,2.58
2023-01-28T09:59:58.552Z,2.46
2023-01-28T10:03:32.916Z,2.32
2023-01-28T10:07:09.585Z,2.29
2023-01-28T10:10:43.810Z,2.60
2023-01-28T10:14:08.469Z,2.59
2023-01-28T10:17:29.204Z,2.85
2023-01-28T10:20:44.284Z,2.47
2023-01-28T10:24:01.654Z,2.96
2023-01-28T10:27:20.190Z,3.15
2023-01-28T10:30:33.085Z,2.72
2023-01-28T10:33:45.713Z,3.18
2023-01-28T10:36:58.090Z,3.50
2023-01-28T10:40:16.470Z,3.42
2023-01-28T10:43:37.423Z,2.96
2023-01-28T10:46:50.325Z,2.78
2023-01-28T10:50:03.147Z,2.98
2023-01-28T10:53:15.742Z,2.79
2023-01-28T10:56:30.416Z,3.03
2023-01-28T10:59:43.125Z,3.42
2023-01-28T11:02:55.455Z,3.17
2023-01-28T11:06:18.144Z,3.44
2023-01-28T11:09:32.073Z,3.37
2023-01-28T11:12:44.787Z,3.42
2023-01-28T11:16:11.518Z,3.32
2023-01-28T11:19:32.661Z,3.35
2023-01-28T11:22:45.055Z,3.59
2023-01-28T11:26:05.115Z,3.88
2023-01-28T11:29:28.876Z,3.51
2023-01-28T11:32:41.543Z,3.66
2023-01-28T11:36:18.019Z,4.07
2023-01-28T11:39:30.722Z,3.74
2023-01-28T11:42:43.076Z,4.21
2023-01-28T11:46:19.877Z,3.97
2023-01-28T11:49:41.347Z,3.88
2023-01-28T11:53:32.651Z,3.50
2023-01-28T11:56:51.039Z,3.81
2023-01-28T12:00:16.840Z,3.55
2023-01-28T12:03:44.465Z,3.62
2023-01-28T12:07:05.910Z,3.50
2023-01-28T12:10:33.723Z,3.61
2023-01-28T12:14:33.942Z,3.81
2023-01-28T12:18:09.690Z,3.95
2023-01-28T12:21:28.123Z,4.03
2023-01-28T12:24:43.616Z,4.16
2023-01-28T12:28:17.908Z,3.71
2023-01-28T12:31:50.496Z,3.88
2023-01-28T12:35:21.567Z,4.34
2023-01-28T12:38:37.090Z,4.17
2023-01-28T12:41:57.435Z,4.05
2023-01-28T12:45:17.419Z,4.27
2023-01-28T12:48:35.083Z,4.23
2023-01-28T12:52:14.226Z,3.97
2023-01-28T12:55:53.274Z,4.35
2023-01-28T12:59:40.720Z,4.63
2023-01-28T13:03:02.804Z,4.51
2023-01-28T13:06:19.657Z,4.77
2023-01-28T13:09:31.981Z,4.27
2023-01-28T13:12:44.602Z,4.19
2023-01-28T13:15:56.960Z,4.21
2023-01-28T13:19:18.710Z,4.34
2023-01-28T13:22:32.922Z,4.70
2023-01-28T13:25:49.921Z,4.46
2023-01-28T13:29:14.218Z,4.21
2023-01-28T13:32:32.295Z,4.51
2023-01-28T13:35:53.391Z,4.38
2023-01-28T13:39:26.649Z,4.36
2023-01-28T13:42:39.173Z,4.56
2023-01-28T13:46:04.847Z,4.33
2023-01-28T13:49:21.333Z,4.55
2023-01-28T13:52:41.914Z,4.47
2023-01-28T13:55:56.604Z,4.48
2023-01-28T14:00:00.177Z,4.52
2023-01-28T14:03:37.967Z,4.46
2023-01-28T14:07:13.637Z,4.08
2023-01-28T14:10:38.222Z,4.24
2023-01-28T14:14:32.352Z,4.15
2023-01-28T14:17:48.572Z,4.22
2023-01-28T14:21:02.618Z,4.01
2023-01-28T14:24:17.591Z,4.11
2023-01-28T14:27:37.447Z,4.15
2023-01-28T14:31:05.304Z,4.14
2023-01-28T14:34:32.486Z,4.21
2023-01-28T14:37:44.849Z,4.09
2023-01-28T14:40:57.523Z,4.07
2023-01-28T14:44:09.932Z,4.00
2023-01-28T14:47:28.732Z,3.88
2023-01-28T14:51:17.048Z,3.88
2023-01-28T14:54:32.332Z,3.80
2023-01-28T14:57:45.619Z,3.80
2023-01-28T15:00:59.883Z,3.72
2023-01-28T15:04:24.170Z,3.82
2023-01-28T15:07:36.856Z,3.78
2023-01-28T15:10:50.022Z,3.91
2023-01-28T15:14:02.595Z,3.95
2023-01-28T15:17:25.873Z,3.84
2023-01-28T15:20:38.501Z,3.78
2023-01-28T15:23:53.668Z,3.96
2023-01-28T15:27:06.486Z,4.10
2023-01-28T15:30:23.969Z,4.21
2023-01-28T15:33:36.586Z,3.81
2023-01-28T15:36:49.863Z,3.90
2023-01-28T15:40:06.491Z,3.83
2023-01-28T15:43:20.112Z,4.01
2023-01-28T15:46:33.859Z,3.89
2023-01-28T15:49:47.316Z,3.88
2023-01-28T15:52:59.906Z,3.83
2023-01-28T15:56:13.661Z,3.75
2023-01-28T15:59:28.047Z,3.90
2023-01-28T16:02:50.758Z,3.73
2023-01-28T16:06:04.781Z,3.63
2023-01-28T16:09:28.185Z,3.76
2023-01-28T16:12:40.833Z,3.76
2023-01-28T16:15:54.425Z,3.69
2023-01-28T16:19:07.103Z,3.73
2023-01-28T16:22:27.310Z,3.58
2023-01-28T16:25:41.628Z,3.62
2023-01-28T16:28:53.976Z,3.45
2023-01-28T16:32:34.191Z,3.44
2023-01-28T16:36:04.658Z,3.40
2023-01-28T16:39:19.155Z,3.40
2023-01-28T16:42:31.816Z,3.27
2023-01-28T16:45:44.810Z,3.21
2023-01-28T16:48:57.116Z,3.36
2023-01-28T16:52:10.189Z,3.31
2023-01-28T16:55:22.657Z,3.19
2023-01-28T16:58:35.397Z,3.19
2023-01-28T17:01:47.895Z,3.18
2023-01-28T17:05:00.746Z,3.13
2023-01-28T17:08:13.126Z,3.09
2023-01-28T17:11:29.100Z,3.09
2023-01-28T17:14:41.491Z,2.93
2023-01-28T17:17:55.418Z,2.90
2023-01-28T17:21:07.793Z,2.99
2023-01-28T17:24:20.446Z,2.84
2023-01-28T17:27:32.973Z,2.91
2023-01-28T17:30:45.640Z,2.77
2023-01-28T17:33:58.361Z,2.73
2023-01-28T17:37:10.952Z,2.64
2023-01-28T17:40:23.361Z,2.49
2023-01-28T17:43:36.019Z,2.56
2023-01-28T17:46:48.389Z,2.60
2023-01-28T17:50:01.104Z,2.42
2023-01-28T17:53:13.735Z,2.59
2023-01-28T17:56:27.535Z,2.63
2023-01-28T17:59:40.025Z,2.38
2023-01-28T18:02:52.930Z,2.35
2023-01-28T18:06:07.311Z,2.37
2023-01-28T18:09:19.837Z,2.21
2023-01-28T18:12:32.492Z,2.17
2023-01-28T18:15:44.861Z,2.07
2023-01-28T18:18:57.498Z,2.08
2023-01-28T18:22:09.807Z,1.93
2023-01-28T18:25:22.487Z,2.00
2023-01-28T18:28:34.838Z,1.92
2023-01-28T18:31:48.342Z,2.04
2023-01-28T18:35:02.348Z,2.00
2023-01-28T18:38:15.649Z,1.94
2023-01-28T18:41:28.008Z,2.02
2023-01-28T18:44:40.655Z,1.90
2023-01-28T18:47:52.991Z,1.92
2023-01-28T18:51:12.274Z,1.91
2023-01-28T18:54:29.936Z,1.89
2023-01-28T18:57:42.549Z,1.75
2023-01-28T19:00:54.909Z,1.93
2023-01-28T19:04:07.965Z,1.86
2023-01-28T19:07:20.275Z,1.92
2023-01-28T19:10:32.950Z,1.92
2023-01-28T19:13:45.363Z,1.94
2023-01-28T19:16:58.510Z,1.82
2023-01-28T19:20:11.435Z,1.97
2023-01-28T19:23:24.099Z,1.98
2023-01-28T19:26:36.576Z,1.94
2023-01-28T19:29:49.232Z,1.78
2023-01-28T19:33:02.087Z,1.88
2023-01-28T19:36:15.019Z,1.90
2023-01-28T19:39:27.375Z,1.79
2023-01-28T19:42:40.008Z,1.79
2023-01-28T19:45:59.132Z,1.90
2023-01-28T19:49:12.725Z,1.92
2023-01-28T19:52:25.122Z,1.79
2023-01-28T19:55:38.409Z,1.80
2023-01-28T19:58:50.855Z,1.84
2023-01-28T20:02:03.594Z,1.91
2023-01-28T20:05:16.753Z,1.89
2023-01-28T20:08:29.329Z,1.74
2023-01-28T20:11:41.947Z,1.82
2023-01-28T20:14:54.421Z,1.79
2023-01-28T20:18:07.028Z,1.89
2023-01-28T20:21:19.541Z,1.85
2023-01-28T20:24:32.226Z,1.65
2023-01-28T20:27:44.712Z,1.62
2023-01-28T20:30:57.694Z,1.71
2023-01-28T20:34:15.924Z,1.62
2023-01-28T20:37:29.406Z,1.64
2023-01-28T20:40:42.467Z,1.59
2023-01-28T20:43:55.206Z,1.72
2023-01-28T20:47:07.732Z,1.73
2023-01-28T20:50:20.343Z,1.81
2023-01-28T20:53:32.680Z,1.87
2023-01-28T20:56:45.402Z,1.72
2023-01-28T20:59:57.744Z,1.77
2023-01-28T21:03:10.441Z,1.77
2023-01-28T21:06:23.456Z,1.89
2023-01-28T21:09:36.076Z,1.74
2023-01-28T21:12:48.443Z,1.94
2023-01-28T21:16:01.210Z,1.90
2023-01-28T21:19:13.549Z,2.00
2023-01-28T21:22:27.095Z,2.11
2023-01-28T21:25:39.435Z,1.92
2023-01-28T21:28:52.175Z,2.13
2023-01-28T21:32:04.786Z,2.10
2023-01-28T21:35:17.479Z,1.90
2023-01-28T21:38:29.905Z,2.08
2023-01-28T21:41:42.548Z,2.11
2023-01-28T21:44:54.951Z,2.05
2023-01-28T21:48:07.619Z,2.05
2023-01-28T21:51:38.685Z,2.05
2023-01-28T21:54:51.331Z,1.94
2023-01-28T21:58:23.596Z,1.96
2023-01-28T22:01:36.347Z,1.92
2023-01-28T22:04:51.717Z,1.90
2023-01-28T22:08:04.321Z,1.92
2023-01-28T22:11:16.946Z,1.91
2023-01-28T22:14:29.615Z,1.97
2023-01-28T22:17:42.252Z,1.94
2023-01-28T22:21:05.317Z,1.99
2023-01-28T22:24:20.065Z,2.01
2023-01-28T22:27:32.448Z,2.05
2023-01-28T22:30:45.107Z,2.16
2023-01-28T22:33:57.580Z,2.40
2023-01-28T22:37:10.518Z,2.39
2023-01-28T22:40:23.035Z,2.31
2023-01-28T22:43:35.758Z,2.21
2023-01-28T22:46:48.391Z,2.34
2023-01-28T22:50:01.054Z,2.49
2023-01-28T22:53:13.361Z,2.29
2023-01-28T22:56:27.418Z,2.22
2023-01-28T22:59:41.906Z,2.30
2023-01-28T23:02:56.383Z,2.38
2023-01-28T23:06:09.664Z,2.10
2023-01-28T23:09:22.313Z,2.06
2023-01-28T23:12:34.643Z,2.16
2023-01-28T23:16:06.906Z,2.06
2023-01-28T23:19:37.972Z,1.97
2023-01-28T23:23:09.482Z,1.92
2023-01-28T23:26:21.803Z,1.90
2023-01-28T23:29:34.430Z,1.85
2023-01-28T23:32:47.566Z,1.81
2023-01-28T23:36:00.208Z,1.80
2023-01-28T23:39:12.621Z,1.99
2023-01-28T23:42:26.096Z,1.90
2023-01-28T23:45:38.434Z,1.95
2023-01-28T23:48:51.805Z,2.01
2023-01-28T23:52:04.447Z,1.86
2023-01-28T23:55:17.101Z,1.94
2023-01-28T23:58:42.529Z,1.92
